메인 페이지
METAR-TAF:

METAR-TAF

공항 :

클린턴 / Burns Flat, 오클라호마, 미국

위도: 35-21-24N, 경도: 099-12-13W, 고도: 585m

현재 날씨관측

예보는 46분 전, 08:53시(UTC)에 발표되었습니다.
4kt
온도 8°C
습도 87%
기압 1018 hPa
시정: 16.1km
고도 4600ft 상공 구름 보통

METAR: KCSM 200853Z AUTO 08004KT 10SM SCT046 08/06 A3005 RMK AO2 SLP170 T00830056 56006

시각: 04:39 (09:39 UTC)

예보

예보는 4 시간 19분 전, 05:20시(UTC)에 발표되었습니다.
예보 대상 시간: 20일 06시부터 21일 06시까지 (UTC)
동남동6kt
시정: 10km
고도 2500ft 상공 흐림
20일 0900시부터 (UTC)
남동10kt
시정: 8.0km
고도 1200ft 상공 흐림
박무
20일 1600시부터 (UTC)
13kt
시정: 10km
고도 2500ft 상공 구름 많음
20일 2100시부터 (UTC)
14kt, 순간 최대 풍속 21kt
시정: 10km
고도 4000ft 상공 구름 보통
21일 0100시부터 (UTC)
남남동12kt
시정: 10km
고도 3000ft 상공 구름 보통

TAF: KCSM 200520Z 2006/2106 11006KT P6SM OVC025 FM200900 14010KT 5SM BR OVC012 FM201600 17013KT P6SM BKN025 FM202100 19014G21KT P6SM SCT040 FM210100 16012KT P6SM SCT030

4,000개 이상의 공항 관측 자료 및 예보 (METAR 및 TAF 보고).

지도상에서 검색 가능한 기상관측소가 노란 점과 빨간 점으로 표시되어 있습니다.

기상관측소 명을 보려면 표시 위로 마우스를 이동하세요.

날씨 관측과 예보를 보려면 클릭하세요.

지도 변경 : 확대하려면 엑스 표시가 있는 녹색 버튼, 축소하려면 빼기 표시가 있는 녹색 버튼, 다음 페이지의 지도를 보려면 녹색 화살표를 클릭하세요.


METAR-TAF: